createdAt,value
2023-03-13T00:01:39.883Z,9.70
2023-03-13T00:04:25.872Z,9.90
2023-03-13T00:07:13.794Z,10.30
2023-03-13T00:09:59.477Z,10.30
2023-03-13T00:12:45.736Z,10.30
2023-03-13T00:15:32.063Z,9.90
2023-03-13T00:18:17.882Z,9.50
2023-03-13T00:21:09.493Z,9.60
2023-03-13T00:23:56.178Z,9.90
2023-03-13T00:26:42.575Z,9.70
2023-03-13T00:29:27.907Z,9.80
2023-03-13T00:32:19.988Z,9.90
2023-03-13T00:35:05.990Z,9.70
2023-03-13T00:37:52.919Z,7.70
2023-03-13T00:40:39.016Z,9.80
2023-03-13T00:43:24.930Z,9.70
2023-03-13T00:46:11.495Z,9.60
2023-03-13T00:48:58.186Z,9.60
2023-03-13T00:51:44.548Z,9.70
2023-03-13T00:54:30.794Z,9.70
2023-03-13T00:57:16.943Z,9.70
2023-03-13T01:00:05.717Z,9.60
2023-03-13T01:02:52.212Z,9.30
2023-03-13T01:05:38.401Z,9.20
2023-03-13T01:08:24.925Z,9.10
2023-03-13T01:11:14.432Z,9.30
2023-03-13T01:14:05.225Z,9.30
2023-03-13T01:16:51.542Z,9.40
2023-03-13T01:19:37.350Z,9.50
2023-03-13T01:22:23.688Z,10.00
2023-03-13T01:25:09.746Z,10.00
2023-03-13T01:27:55.928Z,10.00
2023-03-13T01:30:42.306Z,10.10
2023-03-13T01:33:28.684Z,9.80
2023-03-13T01:36:15.397Z,10.00
2023-03-13T01:39:02.153Z,10.10
2023-03-13T01:41:48.426Z,9.90
2023-03-13T01:44:55.834Z,9.30
2023-03-13T01:47:43.756Z,9.40
2023-03-13T01:50:34.330Z,9.50
2023-03-13T01:53:37.211Z,10.00
2023-03-13T01:56:34.820Z,10.30
2023-03-13T01:59:26.152Z,10.10
2023-03-13T02:02:14.838Z,9.70
2023-03-13T02:05:03.737Z,9.40
2023-03-13T02:07:58.883Z,9.20
2023-03-13T02:10:51.884Z,9.00
2023-03-13T02:13:37.452Z,8.90
2023-03-13T02:16:24.518Z,9.00
2023-03-13T02:19:45.331Z,8.80
2023-03-13T02:23:01.355Z,8.50
2023-03-13T02:25:53.813Z,8.50
2023-03-13T02:28:44.420Z,8.50
2023-03-13T02:31:33.250Z,8.40
2023-03-13T02:34:25.094Z,8.50
2023-03-13T02:37:14.454Z,8.90
2023-03-13T02:40:06.080Z,8.90
2023-03-13T02:42:53.586Z,8.40
2023-03-13T02:45:40.259Z,8.60
2023-03-13T02:48:40.324Z,8.30
2023-03-13T02:51:34.392Z,8.00
2023-03-13T02:54:37.812Z,7.90
2023-03-13T02:57:24.447Z,7.70
2023-03-13T03:00:16.944Z,7.80
2023-03-13T03:03:03.714Z,7.80
2023-03-13T03:05:49.371Z,7.70
2023-03-13T03:08:35.991Z,7.80
2023-03-13T03:11:22.780Z,8.10
2023-03-13T03:14:34.889Z,8.60
2023-03-13T03:17:20.689Z,9.10
2023-03-13T03:20:12.220Z,9.40
2023-03-13T03:23:01.350Z,9.60
2023-03-13T03:25:47.294Z,8.70
2023-03-13T03:28:34.150Z,8.90
2023-03-13T03:31:24.548Z,8.50
2023-03-13T03:34:10.904Z,8.20
2023-03-13T03:36:56.684Z,8.10
2023-03-13T03:39:42.668Z,8.60
2023-03-13T03:42:28.933Z,8.70
2023-03-13T03:45:14.924Z,8.40
2023-03-13T03:48:00.882Z,8.80
2023-03-13T03:50:46.799Z,8.80
2023-03-13T03:53:33.979Z,8.60
2023-03-13T03:56:20.578Z,7.90
2023-03-13T03:59:12.027Z,8.10
2023-03-13T04:02:01.959Z,8.10
2023-03-13T04:04:49.806Z,8.10
2023-03-13T04:07:42.936Z,7.90
2023-03-13T04:10:28.875Z,7.80
2023-03-13T04:13:15.853Z,7.80
2023-03-13T04:16:08.096Z,8.30
2023-03-13T04:18:54.640Z,8.90
2023-03-13T04:21:42.527Z,9.20
2023-03-13T04:24:33.818Z,9.40
2023-03-13T04:27:20.239Z,9.20
2023-03-13T04:30:08.824Z,9.30
2023-03-13T04:33:30.121Z,9.50
2023-03-13T04:36:34.948Z,9.40
2023-03-13T04:39:52.063Z,9.30
2023-03-13T04:42:56.272Z,9.50
2023-03-13T04:45:58.241Z,9.50
2023-03-13T04:49:02.685Z,9.60
2023-03-13T04:52:07.967Z,9.70
2023-03-13T04:55:19.949Z,9.70
2023-03-13T04:58:29.275Z,9.60
2023-03-13T05:01:42.309Z,9.70
2023-03-13T05:07:55.359Z,9.80
2023-03-13T05:10:50.462Z,9.80
2023-03-13T05:13:55.286Z,9.80
2023-03-13T05:17:06.344Z,9.80
2023-03-13T05:20:15.432Z,9.80
2023-03-13T05:23:08.527Z,9.90
2023-03-13T05:26:14.725Z,10.00
2023-03-13T05:29:10.509Z,10.00
2023-03-13T05:32:25.942Z,9.90
2023-03-13T05:35:38.597Z,9.80
2023-03-13T05:38:43.623Z,9.90
2023-03-13T05:41:37.227Z,9.90
2023-03-13T05:44:36.977Z,9.80
2023-03-13T05:47:23.281Z,9.60
2023-03-13T05:50:41.496Z,9.60
2023-03-13T05:53:47.823Z,9.50
2023-03-13T06:01:15.990Z,9.90
2023-03-13T06:04:11.414Z,9.80
2023-03-13T06:06:59.417Z,9.90
2023-03-13T06:09:45.566Z,9.90
2023-03-13T06:12:33.295Z,10.00
2023-03-13T06:15:19.401Z,10.00
2023-03-13T06:18:35.774Z,10.20
2023-03-13T06:21:23.506Z,10.40
2023-03-13T06:24:09.827Z,10.50
2023-03-13T06:26:56.023Z,10.50
2023-03-13T06:29:41.768Z,10.50
2023-03-13T06:32:28.708Z,10.60
2023-03-13T06:35:15.049Z,10.50
2023-03-13T06:38:02.067Z,10.30
2023-03-13T06:40:48.066Z,10.40
2023-03-13T06:43:35.514Z,10.10
2023-03-13T06:46:34.967Z,10.40
2023-03-13T06:49:21.346Z,10.00
2023-03-13T06:52:10.221Z,9.80
2023-03-13T06:54:56.503Z,9.80
2023-03-13T06:57:44.241Z,9.50
2023-03-13T07:00:31.399Z,9.30
2023-03-13T07:03:20.206Z,9.10
2023-03-13T07:06:06.893Z,7.60
2023-03-13T07:08:54.171Z,8.70
2023-03-13T07:11:43.870Z,9.50
2023-03-13T07:14:31.417Z,9.30
2023-03-13T07:17:24.669Z,6.90
2023-03-13T07:20:11.515Z,9.10
2023-03-13T07:22:57.210Z,9.00
2023-03-13T07:25:43.582Z,9.20
2023-03-13T07:28:31.885Z,9.60
2023-03-13T07:31:21.060Z,10.00
2023-03-13T07:34:07.772Z,9.90
2023-03-13T07:36:55.259Z,10.20
2023-03-13T07:39:42.466Z,11.30
2023-03-13T07:42:28.630Z,11.90
2023-03-13T07:45:16.572Z,11.90
2023-03-13T07:48:02.347Z,11.90
2023-03-13T07:51:17.592Z,12.30
2023-03-13T07:54:07.437Z,12.10
2023-03-13T07:56:55.218Z,12.40
2023-03-13T08:02:47.816Z,12.70
2023-03-13T08:05:35.242Z,13.70
2023-03-13T08:08:23.615Z,14.10
2023-03-13T08:11:14.592Z,15.00
2023-03-13T08:20:22.215Z,16.90
2023-03-13T08:26:12.958Z,15.90
2023-03-13T08:29:10.449Z,15.90
2023-03-13T08:38:09.525Z,16.70
2023-03-13T08:44:03.995Z,15.10
2023-03-13T08:47:02.729Z,15.20
2023-03-13T08:49:51.909Z,15.10
2023-03-13T08:52:38.171Z,16.00
2023-03-13T08:55:26.266Z,14.70
2023-03-13T08:58:15.127Z,14.60
2023-03-13T09:01:14.315Z,14.40
2023-03-13T09:04:03.994Z,15.00
2023-03-13T09:06:51.432Z,13.20
2023-03-13T09:09:38.298Z,13.30
2023-03-13T09:12:30.767Z,13.70
2023-03-13T09:15:18.261Z,14.80
2023-03-13T09:18:08.909Z,15.40
2023-03-13T09:20:56.502Z,15.50
2023-03-13T09:23:42.942Z,15.50
2023-03-13T09:26:32.646Z,13.50
2023-03-13T09:29:25.250Z,13.10
2023-03-13T09:32:12.719Z,13.40
2023-03-13T09:41:34.587Z,14.60
2023-03-13T09:44:29.566Z,14.00
2023-03-13T09:47:41.149Z,13.40
2023-03-13T09:50:41.508Z,13.50
2023-03-13T09:53:45.668Z,13.70
2023-03-13T09:56:44.699Z,14.20
2023-03-13T10:00:00.737Z,13.70
2023-03-13T10:02:56.464Z,14.00
2023-03-13T10:09:09.971Z,14.50
2023-03-13T10:12:06.129Z,14.50
2023-03-13T10:15:10.840Z,14.60
2023-03-13T10:18:11.281Z,16.20
2023-03-13T10:21:01.267Z,16.10
2023-03-13T10:24:05.766Z,19.30
2023-03-13T10:26:52.838Z,19.80
2023-03-13T10:29:39.246Z,17.10
2023-03-13T10:32:27.645Z,16.50
2023-03-13T10:35:22.297Z,17.20
2023-03-13T10:38:22.184Z,18.10
2023-03-13T10:41:33.406Z,17.20
2023-03-13T10:44:25.337Z,16.20
2023-03-13T10:47:17.748Z,15.10
2023-03-13T10:50:05.130Z,16.00
2023-03-13T10:52:52.447Z,17.10
2023-03-13T10:55:44.623Z,15.80
2023-03-13T10:58:48.925Z,14.80
2023-03-13T11:01:42.637Z,15.00
2023-03-13T11:04:33.380Z,15.60
2023-03-13T11:07:35.556Z,15.50
2023-03-13T11:10:38.233Z,15.30
2023-03-13T11:13:37.337Z,15.10
2023-03-13T11:16:29.976Z,13.80
2023-03-13T11:19:33.417Z,14.30
2023-03-13T11:22:54.000Z,14.40
2023-03-13T11:26:05.458Z,14.80
2023-03-13T11:29:04.079Z,14.80
2023-03-13T11:32:00.132Z,14.60
2023-03-13T11:34:57.049Z,14.60
2023-03-13T11:37:45.044Z,15.40
2023-03-13T11:40:45.830Z,15.70
2023-03-13T11:44:05.495Z,15.80
2023-03-13T11:47:15.096Z,16.20
2023-03-13T11:50:23.580Z,15.80
2023-03-13T11:53:33.831Z,14.90
2023-03-13T11:56:58.552Z,15.10
2023-03-13T12:00:08.245Z,15.10
2023-03-13T12:03:27.066Z,15.20
2023-03-13T12:06:31.863Z,15.00
2023-03-13T12:09:29.300Z,15.00
2023-03-13T12:12:24.357Z,15.00
2023-03-13T12:15:34.219Z,14.90
2023-03-13T12:18:32.850Z,15.60
2023-03-13T12:21:53.960Z,15.80
2023-03-13T12:24:54.629Z,15.60
2023-03-13T12:27:47.382Z,15.70
2023-03-13T12:31:00.812Z,14.50
2023-03-13T12:34:26.001Z,15.40
2023-03-13T12:37:31.428Z,15.50
2023-03-13T12:40:40.646Z,15.80
2023-03-13T12:43:40.229Z,15.30
2023-03-13T12:46:35.283Z,15.10
2023-03-13T12:49:39.971Z,15.80
2023-03-13T12:52:41.404Z,15.60
2023-03-13T12:55:38.779Z,16.00
2023-03-13T12:58:45.268Z,16.00
2023-03-13T13:01:35.350Z,16.00
2023-03-13T13:04:30.586Z,16.80
2023-03-13T13:07:39.122Z,16.50
2023-03-13T13:10:29.556Z,16.60
2023-03-13T13:13:15.868Z,15.90
2023-03-13T13:16:08.184Z,15.90
2023-03-13T13:18:56.420Z,15.40
2023-03-13T13:21:42.855Z,15.60
2023-03-13T13:24:59.937Z,15.60
2023-03-13T13:27:47.011Z,15.50
2023-03-13T13:30:34.216Z,15.90
2023-03-13T13:33:31.061Z,15.60
2023-03-13T13:36:28.623Z,15.40
2023-03-13T13:39:39.701Z,15.50
2023-03-13T13:42:32.217Z,15.60
2023-03-13T13:45:26.233Z,15.90
2023-03-13T13:48:27.998Z,16.10
2023-03-13T13:51:18.988Z,15.90
2023-03-13T13:54:18.114Z,16.00
2023-03-13T13:57:37.950Z,16.30
2023-03-13T14:00:35.401Z,16.10
2023-03-13T14:03:28.196Z,16.60
2023-03-13T14:06:32.197Z,16.10
2023-03-13T14:09:41.106Z,14.80
2023-03-13T14:12:38.640Z,15.90
2023-03-13T14:15:28.036Z,16.60
2023-03-13T14:18:30.196Z,16.70
2023-03-13T14:21:25.776Z,16.50
2023-03-13T14:24:16.138Z,17.40
2023-03-13T14:27:02.857Z,17.20
2023-03-13T14:30:05.727Z,16.60
2023-03-13T14:32:52.528Z,16.40
2023-03-13T14:35:40.055Z,16.90
2023-03-13T14:38:27.963Z,17.50
2023-03-13T14:41:32.789Z,17.40
2023-03-13T14:44:28.878Z,16.30
2023-03-13T14:47:30.880Z,16.20
2023-03-13T14:50:18.037Z,16.00
2023-03-13T14:53:13.302Z,16.20
2023-03-13T14:56:19.175Z,16.80
2023-03-13T14:59:28.496Z,16.10
2023-03-13T15:02:32.077Z,16.60
2023-03-13T15:05:33.278Z,16.90
2023-03-13T15:08:24.229Z,16.40
2023-03-13T15:11:34.185Z,15.90
2023-03-13T15:14:47.090Z,15.80
2023-03-13T15:17:34.333Z,14.10
2023-03-13T15:20:24.873Z,16.50
2023-03-13T15:23:15.826Z,16.70
2023-03-13T15:26:02.428Z,16.60
2023-03-13T15:28:51.052Z,16.20
2023-03-13T15:31:37.375Z,16.20
2023-03-13T15:34:25.525Z,16.50
2023-03-13T15:37:14.607Z,16.70
2023-03-13T15:40:00.656Z,16.50
2023-03-13T15:42:46.928Z,16.30
2023-03-13T15:45:33.299Z,16.10
2023-03-13T15:48:31.379Z,15.80
2023-03-13T15:51:17.792Z,16.00
2023-03-13T15:54:04.210Z,16.00
2023-03-13T15:56:50.560Z,15.80
2023-03-13T15:59:37.188Z,15.80
2023-03-13T16:02:24.982Z,15.90
2023-03-13T16:05:11.441Z,15.90
2023-03-13T16:07:57.432Z,15.80
2023-03-13T16:10:44.560Z,15.60
2023-03-13T16:13:31.037Z,15.50
2023-03-13T16:16:20.209Z,15.80
2023-03-13T16:19:07.793Z,15.80
2023-03-13T16:21:53.727Z,15.80
2023-03-13T16:24:41.078Z,15.60
2023-03-13T16:27:29.185Z,15.50
2023-03-13T16:30:22.269Z,15.60
2023-03-13T16:33:08.621Z,15.50
2023-03-13T16:35:55.191Z,15.50
2023-03-13T16:38:41.265Z,15.40
2023-03-13T16:41:28.794Z,15.30
2023-03-13T16:44:15.172Z,15.30
2023-03-13T16:47:05.940Z,15.30
2023-03-13T16:49:52.720Z,15.30
2023-03-13T16:52:38.907Z,15.20
2023-03-13T16:55:28.760Z,15.30
2023-03-13T16:58:14.612Z,15.30
2023-03-13T17:01:05.913Z,15.50
2023-03-13T17:03:53.306Z,15.50
2023-03-13T17:06:45.959Z,15.40
2023-03-13T17:09:32.332Z,15.40
2023-03-13T17:12:19.096Z,15.40
2023-03-13T17:15:05.725Z,15.50
2023-03-13T17:17:52.954Z,15.40
2023-03-13T17:20:39.093Z,15.30
2023-03-13T17:23:26.153Z,15.10
2023-03-13T17:26:36.758Z,15.30
2023-03-13T17:29:23.756Z,15.30
2023-03-13T17:32:14.212Z,15.30
2023-03-13T17:34:59.810Z,15.70
2023-03-13T17:37:45.776Z,15.60
2023-03-13T17:40:32.649Z,15.30
2023-03-13T17:43:18.776Z,15.20
2023-03-13T17:46:15.467Z,15.20
2023-03-13T17:49:01.989Z,15.20
2023-03-13T17:51:49.960Z,15.10
2023-03-13T17:54:35.499Z,15.10
2023-03-13T17:57:22.905Z,15.20
2023-03-13T18:00:24.901Z,15.20
2023-03-13T18:03:11.723Z,15.10
2023-03-13T18:05:58.080Z,15.10
2023-03-13T18:08:44.328Z,15.10
2023-03-13T18:11:30.595Z,15.20
2023-03-13T18:14:16.769Z,15.20
2023-03-13T18:17:02.928Z,15.20
2023-03-13T18:19:51.316Z,15.10
2023-03-13T18:22:37.354Z,15.10
2023-03-13T18:25:23.456Z,15.20
2023-03-13T18:28:12.459Z,15.20
2023-03-13T18:30:58.631Z,15.10
2023-03-13T18:33:46.618Z,15.10
2023-03-13T18:36:34.044Z,15.10
2023-03-13T18:39:20.477Z,15.00
2023-03-13T18:42:07.803Z,15.10
2023-03-13T18:44:53.998Z,15.10
2023-03-13T18:47:41.507Z,15.30
2023-03-13T18:50:31.158Z,15.40
2023-03-13T18:53:18.323Z,15.60
2023-03-13T18:56:33.359Z,16.50
2023-03-13T18:59:20.982Z,15.50
2023-03-13T19:02:19.468Z,15.30
2023-03-13T19:05:05.829Z,15.40
2023-03-13T19:07:51.938Z,15.70
2023-03-13T19:14:57.517Z,15.80
2023-03-13T19:17:47.881Z,15.70
2023-03-13T19:20:34.161Z,15.80
2023-03-13T19:23:20.301Z,15.80
2023-03-13T19:26:06.281Z,15.70
2023-03-13T19:28:58.266Z,15.60
2023-03-13T19:31:44.708Z,15.70
2023-03-13T19:34:33.758Z,15.50
2023-03-13T19:37:19.875Z,15.40
2023-03-13T19:40:17.730Z,15.50
2023-03-13T19:43:12.580Z,15.50
2023-03-13T19:45:59.889Z,15.40
2023-03-13T19:48:49.141Z,15.40
2023-03-13T19:51:37.015Z,15.60
2023-03-13T19:54:24.420Z,15.50
2023-03-13T19:57:11.872Z,14.50
2023-03-13T19:59:58.585Z,15.40
2023-03-13T20:02:45.025Z,13.90
2023-03-13T20:05:31.360Z,15.30
2023-03-13T20:08:20.544Z,15.20
2023-03-13T20:11:08.147Z,15.40
2023-03-13T20:13:55.001Z,15.40
2023-03-13T20:16:40.778Z,15.10
2023-03-13T20:19:29.507Z,14.80
2023-03-13T20:22:16.366Z,14.70
2023-03-13T20:25:02.532Z,14.70
2023-03-13T20:27:50.253Z,15.00
2023-03-13T20:30:40.687Z,15.40
2023-03-13T20:33:28.390Z,15.70
2023-03-13T20:36:24.989Z,15.60
2023-03-13T20:39:12.448Z,15.30
2023-03-13T20:42:02.686Z,15.30
2023-03-13T20:44:49.182Z,14.90
2023-03-13T20:47:36.063Z,13.70
2023-03-13T20:50:25.895Z,14.90
2023-03-13T20:53:14.761Z,15.10
2023-03-13T20:56:02.066Z,15.10
2023-03-13T20:58:48.404Z,15.10
2023-03-13T21:01:40.545Z,14.90
2023-03-13T21:04:26.757Z,15.40
2023-03-13T21:07:14.081Z,15.30
2023-03-13T21:10:01.284Z,15.20
2023-03-13T21:12:47.628Z,15.80
2023-03-13T21:15:34.513Z,15.20
2023-03-13T21:18:20.524Z,13.30
2023-03-13T21:21:15.214Z,14.70
2023-03-13T21:24:07.649Z,14.50
2023-03-13T21:26:53.449Z,14.30
2023-03-13T21:29:40.817Z,14.30
2023-03-13T21:32:27.004Z,12.60
2023-03-13T21:35:13.943Z,14.20
2023-03-13T21:38:00.588Z,14.20
2023-03-13T21:40:46.424Z,14.10
2023-03-13T21:43:32.250Z,14.10
2023-03-13T21:46:20.003Z,14.20
2023-03-13T21:49:06.109Z,14.50
2023-03-13T21:51:52.133Z,14.80
2023-03-13T21:54:42.083Z,14.70
2023-03-13T21:57:28.316Z,14.70
2023-03-13T22:00:15.050Z,14.70
2023-03-13T22:03:01.492Z,14.80
2023-03-13T22:05:47.302Z,14.60
2023-03-13T22:08:33.649Z,14.80
2023-03-13T22:11:20.299Z,14.50
2023-03-13T22:14:07.998Z,14.50
2023-03-13T22:16:54.431Z,14.00
2023-03-13T22:19:40.362Z,14.50
2023-03-13T22:22:26.472Z,14.50
2023-03-13T22:25:12.741Z,14.30
2023-03-13T22:27:59.018Z,14.30
2023-03-13T22:30:45.763Z,14.40
2023-03-13T22:33:32.355Z,14.50
2023-03-13T22:36:18.347Z,14.10
2023-03-13T22:39:07.958Z,13.90
2023-03-13T22:41:57.950Z,13.90
2023-03-13T22:44:44.396Z,14.00
2023-03-13T22:47:31.618Z,14.10
2023-03-13T22:50:21.048Z,13.90
2023-03-13T22:53:08.051Z,13.70
2023-03-13T22:55:54.180Z,13.80
2023-03-13T22:58:41.170Z,14.10
2023-03-13T23:01:27.477Z,14.00
2023-03-13T23:04:13.405Z,14.10
2023-03-13T23:06:59.116Z,13.70
2023-03-13T23:09:45.075Z,13.70
2023-03-13T23:12:31.442Z,13.40
2023-03-13T23:15:17.498Z,13.40
2023-03-13T23:18:03.777Z,13.50
2023-03-13T23:20:57.639Z,13.50
2023-03-13T23:23:44.484Z,13.60
2023-03-13T23:26:30.845Z,13.40
2023-03-13T23:29:16.728Z,13.20
2023-03-13T23:32:03.278Z,13.10
2023-03-13T23:34:49.485Z,13.00
2023-03-13T23:37:35.929Z,13.00
2023-03-13T23:40:23.417Z,13.10
2023-03-13T23:43:09.522Z,13.20
2023-03-13T23:45:58.459Z,13.10
2023-03-13T23:48:44.625Z,13.00
2023-03-13T23:51:31.152Z,12.80
2023-03-13T23:54:17.056Z,12.90
2023-03-13T23:57:06.216Z,13.00
2023-03-13T23:59:52.384Z,13.00
